sensor_id;sensor_type;location;lat;lon;timestamp;temperature;humidity
54140;DHT22;40046;53.254;5.900;2022-10-16T00:01:26;12.50;99.90
54140;DHT22;40046;53.254;5.900;2022-10-16T00:03:52;12.50;99.90
54140;DHT22;40046;53.254;5.900;2022-10-16T00:06:20;12.40;99.90
54140;DHT22;40046;53.254;5.900;2022-10-16T00:08:46;12.50;99.90
54140;DHT22;40046;53.254;5.900;2022-10-16T00:11:36;12.50;99.90
54140;DHT22;40046;53.254;5.900;2022-10-16T00:14:04;12.40;99.90
54140;DHT22;40046;53.254;5.900;2022-10-16T00:16:32;12.40;99.90
54140;DHT22;40046;53.254;5.900;2022-10-16T00:18:57;12.40;99.90
54140;DHT22;40046;53.254;5.900;2022-10-16T00:21:26;12.40;99.90
54140;DHT22;40046;53.254;5.900;2022-10-16T00:23:58;12.30;99.90
54140;DHT22;40046;53.254;5.900;2022-10-16T00:26:25;12.30;99.90
54140;DHT22;40046;53.254;5.900;2022-10-16T00:28:51;12.30;99.90
54140;DHT22;40046;53.254;5.900;2022-10-16T00:31:20;12.30;99.90
54140;DHT22;40046;53.254;5.900;2022-10-16T00:33:46;12.30;99.90
54140;DHT22;40046;53.254;5.900;2022-10-16T00:36:15;12.30;99.90
54140;DHT22;40046;53.254;5.900;2022-10-16T00:38:41;12.30;99.90
54140;DHT22;40046;53.254;5.900;2022-10-16T00:41:09;12.30;99.90
54140;DHT22;40046;53.254;5.900;2022-10-16T00:43:45;12.30;99.90
54140;DHT22;40046;53.254;5.900;2022-10-16T00:51:19;12.20;99.90
54140;DHT22;40046;53.254;5.900;2022-10-16T00:53:48;12.20;99.90
54140;DHT22;40046;53.254;5.900;2022-10-16T00:56:13;12.20;99.90
54140;DHT22;40046;53.254;5.900;2022-10-16T00:58:39;12.20;99.90
54140;DHT22;40046;53.254;5.900;2022-10-16T01:01:05;12.20;99.90
54140;DHT22;40046;53.254;5.900;2022-10-16T01:03:33;12.20;99.90
54140;DHT22;40046;53.254;5.900;2022-10-16T01:09:16;12.20;99.90
54140;DHT22;40046;53.254;5.900;2022-10-16T01:17:15;12.40;99.90
54140;DHT22;40046;53.254;5.900;2022-10-16T01:20:12;12.40;99.90
54140;DHT22;40046;53.254;5.900;2022-10-16T01:22:58;12.50;99.90
54140;DHT22;40046;53.254;5.900;2022-10-16T01:27:57;12.60;99.90
54140;DHT22;40046;53.254;5.900;2022-10-16T01:30:30;12.60;99.90
54140;DHT22;40046;53.254;5.900;2022-10-16T01:33:10;12.60;99.90
54140;DHT22;40046;53.254;5.900;2022-10-16T01:35:42;12.70;99.90
54140;DHT22;40046;53.254;5.900;2022-10-16T01:38:22;12.70;99.90
54140;DHT22;40046;53.254;5.900;2022-10-16T01:40:52;12.80;99.90
54140;DHT22;40046;53.254;5.900;2022-10-16T01:43:25;12.80;99.90
54140;DHT22;40046;53.254;5.900;2022-10-16T01:45:52;12.80;99.90
54140;DHT22;40046;53.254;5.900;2022-10-16T01:48:19;12.80;99.90
54140;DHT22;40046;53.254;5.900;2022-10-16T01:50:54;12.80;99.90
54140;DHT22;40046;53.254;5.900;2022-10-16T01:53:22;12.80;99.90
54140;DHT22;40046;53.254;5.900;2022-10-16T01:55:50;12.90;99.90
54140;DHT22;40046;53.254;5.900;2022-10-16T01:58:17;12.90;99.90
54140;DHT22;40046;53.254;5.900;2022-10-16T02:00:44;12.90;99.90
54140;DHT22;40046;53.254;5.900;2022-10-16T02:03:13;12.90;99.90
54140;DHT22;40046;53.254;5.900;2022-10-16T02:05:46;12.90;99.90
54140;DHT22;40046;53.254;5.900;2022-10-16T02:08:13;12.90;99.90
54140;DHT22;40046;53.254;5.900;2022-10-16T02:10:39;12.90;99.90
54140;DHT22;40046;53.254;5.900;2022-10-16T02:15:34;12.80;99.90
54140;DHT22;40046;53.254;5.900;2022-10-16T02:18:02;12.80;99.90
54140;DHT22;40046;53.254;5.900;2022-10-16T02:20:44;12.80;99.90
54140;DHT22;40046;53.254;5.900;2022-10-16T02:26:04;12.80;99.90
54140;DHT22;40046;53.254;5.900;2022-10-16T02:28:42;12.80;99.90
54140;DHT22;40046;53.254;5.900;2022-10-16T02:31:11;12.80;99.90
54140;DHT22;40046;53.254;5.900;2022-10-16T02:33:40;12.70;99.90
54140;DHT22;40046;53.254;5.900;2022-10-16T02:36:07;12.70;99.90
54140;DHT22;40046;53.254;5.900;2022-10-16T02:38:34;12.70;99.90
54140;DHT22;40046;53.254;5.900;2022-10-16T02:41:00;12.60;99.90
54140;DHT22;40046;53.254;5.900;2022-10-16T02:43:26;12.60;99.90
54140;DHT22;40046;53.254;5.900;2022-10-16T02:45:52;12.60;99.90
54140;DHT22;40046;53.254;5.900;2022-10-16T02:48:18;12.60;99.90
54140;DHT22;40046;53.254;5.900;2022-10-16T02:50:43;12.60;99.90
54140;DHT22;40046;53.254;5.900;2022-10-16T02:53:09;12.60;99.90
54140;DHT22;40046;53.254;5.900;2022-10-16T02:55:35;12.60;99.90
54140;DHT22;40046;53.254;5.900;2022-10-16T02:58:00;12.50;99.90
54140;DHT22;40046;53.254;5.900;2022-10-16T03:00:26;12.50;99.90
54140;DHT22;40046;53.254;5.900;2022-10-16T03:02:52;12.40;99.90
54140;DHT22;40046;53.254;5.900;2022-10-16T03:05:18;12.40;99.90
54140;DHT22;40046;53.254;5.900;2022-10-16T03:07:43;12.30;99.90
54140;DHT22;40046;53.254;5.900;2022-10-16T03:10:09;12.30;99.90
54140;DHT22;40046;53.254;5.900;2022-10-16T03:12:35;12.30;99.90
54140;DHT22;40046;53.254;5.900;2022-10-16T03:15:00;12.20;99.90
54140;DHT22;40046;53.254;5.900;2022-10-16T03:17:26;12.20;99.90
54140;DHT22;40046;53.254;5.900;2022-10-16T03:19:52;12.20;99.90
54140;DHT22;40046;53.254;5.900;2022-10-16T03:22:18;12.20;99.90
54140;DHT22;40046;53.254;5.900;2022-10-16T03:24:43;12.20;99.90
54140;DHT22;40046;53.254;5.900;2022-10-16T03:27:09;12.20;99.90
54140;DHT22;40046;53.254;5.900;2022-10-16T03:29:35;12.20;99.90
54140;DHT22;40046;53.254;5.900;2022-10-16T03:32:01;12.10;99.90
54140;DHT22;40046;53.254;5.900;2022-10-16T03:34:26;12.10;99.90
54140;DHT22;40046;53.254;5.900;2022-10-16T03:36:53;12.10;99.90
54140;DHT22;40046;53.254;5.900;2022-10-16T03:39:19;12.10;99.90
54140;DHT22;40046;53.254;5.900;2022-10-16T03:41:45;12.10;99.90
54140;DHT22;40046;53.254;5.900;2022-10-16T03:44:12;12.10;99.90
54140;DHT22;40046;53.254;5.900;2022-10-16T03:46:38;12.10;99.90
54140;DHT22;40046;53.254;5.900;2022-10-16T03:49:04;12.20;99.90
54140;DHT22;40046;53.254;5.900;2022-10-16T03:51:30;12.20;99.90
54140;DHT22;40046;53.254;5.900;2022-10-16T03:53:56;12.20;99.90
54140;DHT22;40046;53.254;5.900;2022-10-16T03:56:21;12.20;99.90
54140;DHT22;40046;53.254;5.900;2022-10-16T03:58:47;12.20;99.90
54140;DHT22;40046;53.254;5.900;2022-10-16T04:01:13;12.20;99.90
54140;DHT22;40046;53.254;5.900;2022-10-16T04:03:38;12.30;99.90
54140;DHT22;40046;53.254;5.900;2022-10-16T04:06:04;12.30;99.90
54140;DHT22;40046;53.254;5.900;2022-10-16T04:08:30;12.40;99.90
54140;DHT22;40046;53.254;5.900;2022-10-16T04:10:59;12.40;99.90
54140;DHT22;40046;53.254;5.900;2022-10-16T04:13:25;12.40;99.90
54140;DHT22;40046;53.254;5.900;2022-10-16T04:15:50;12.50;99.90
54140;DHT22;40046;53.254;5.900;2022-10-16T04:18:16;12.50;99.90
54140;DHT22;40046;53.254;5.900;2022-10-16T04:20:42;12.50;99.90
54140;DHT22;40046;53.254;5.900;2022-10-16T04:23:08;12.50;99.90
54140;DHT22;40046;53.254;5.900;2022-10-16T04:25:33;12.50;99.90
54140;DHT22;40046;53.254;5.900;2022-10-16T04:27:59;12.60;99.90
54140;DHT22;40046;53.254;5.900;2022-10-16T04:30:25;12.60;99.90
54140;DHT22;40046;53.254;5.900;2022-10-16T04:32:51;12.50;99.90
54140;DHT22;40046;53.254;5.900;2022-10-16T04:35:18;12.60;99.90
54140;DHT22;40046;53.254;5.900;2022-10-16T04:37:44;12.60;99.90
54140;DHT22;40046;53.254;5.900;2022-10-16T04:40:10;12.60;99.90
54140;DHT22;40046;53.254;5.900;2022-10-16T04:42:36;12.60;99.90
54140;DHT22;40046;53.254;5.900;2022-10-16T04:45:03;12.60;99.90
54140;DHT22;40046;53.254;5.900;2022-10-16T04:47:29;12.60;99.90
54140;DHT22;40046;53.254;5.900;2022-10-16T04:49:54;12.60;99.90
54140;DHT22;40046;53.254;5.900;2022-10-16T04:52:20;12.50;99.90
54140;DHT22;40046;53.254;5.900;2022-10-16T04:54:47;12.50;99.90
54140;DHT22;40046;53.254;5.900;2022-10-16T04:57:12;12.50;99.90
54140;DHT22;40046;53.254;5.900;2022-10-16T04:59:38;12.50;99.90
54140;DHT22;40046;53.254;5.900;2022-10-16T05:02:04;12.40;99.90
54140;DHT22;40046;53.254;5.900;2022-10-16T05:04:30;12.40;99.90
54140;DHT22;40046;53.254;5.900;2022-10-16T05:06:55;12.40;99.90
54140;DHT22;40046;53.254;5.900;2022-10-16T05:09:21;12.40;99.90
54140;DHT22;40046;53.254;5.900;2022-10-16T05:11:47;12.40;99.90
54140;DHT22;40046;53.254;5.900;2022-10-16T05:14:12;12.40;99.90
54140;DHT22;40046;53.254;5.900;2022-10-16T05:16:38;12.40;99.90
54140;DHT22;40046;53.254;5.900;2022-10-16T05:19:04;12.40;99.90
54140;DHT22;40046;53.254;5.900;2022-10-16T05:21:30;12.30;99.90
54140;DHT22;40046;53.254;5.900;2022-10-16T05:23:55;12.30;99.90
54140;DHT22;40046;53.254;5.900;2022-10-16T05:26:21;12.30;99.90
54140;DHT22;40046;53.254;5.900;2022-10-16T05:28:49;12.30;99.90
54140;DHT22;40046;53.254;5.900;2022-10-16T05:31:15;12.30;99.90
54140;DHT22;40046;53.254;5.900;2022-10-16T05:33:41;12.30;99.90
54140;DHT22;40046;53.254;5.900;2022-10-16T05:36:08;12.30;99.90
54140;DHT22;40046;53.254;5.900;2022-10-16T05:38:35;12.30;99.90
54140;DHT22;40046;53.254;5.900;2022-10-16T05:41:01;12.30;99.90
54140;DHT22;40046;53.254;5.900;2022-10-16T05:43:28;12.30;99.90
54140;DHT22;40046;53.254;5.900;2022-10-16T05:46:00;12.30;99.90
54140;DHT22;40046;53.254;5.900;2022-10-16T05:48:26;12.30;99.90
54140;DHT22;40046;53.254;5.900;2022-10-16T05:51:04;12.20;99.90
54140;DHT22;40046;53.254;5.900;2022-10-16T05:53:32;12.20;99.90
54140;DHT22;40046;53.254;5.900;2022-10-16T05:55:59;12.10;99.90
54140;DHT22;40046;53.254;5.900;2022-10-16T05:58:28;12.10;99.90
54140;DHT22;40046;53.254;5.900;2022-10-16T06:00:58;12.10;99.90
54140;DHT22;40046;53.254;5.900;2022-10-16T06:03:25;12.10;99.90
54140;DHT22;40046;53.254;5.900;2022-10-16T06:05:52;12.10;99.90
54140;DHT22;40046;53.254;5.900;2022-10-16T06:08:19;12.10;99.90
54140;DHT22;40046;53.254;5.900;2022-10-16T06:10:45;12.10;99.90
54140;DHT22;40046;53.254;5.900;2022-10-16T06:13:12;12.10;99.90
54140;DHT22;40046;53.254;5.900;2022-10-16T06:15:39;12.10;99.90
54140;DHT22;40046;53.254;5.900;2022-10-16T06:18:07;12.10;99.90
54140;DHT22;40046;53.254;5.900;2022-10-16T06:20:33;12.10;99.90
54140;DHT22;40046;53.254;5.900;2022-10-16T06:22:59;12.00;99.90
54140;DHT22;40046;53.254;5.900;2022-10-16T06:25:24;12.00;99.90
54140;DHT22;40046;53.254;5.900;2022-10-16T06:27:50;12.10;99.90
54140;DHT22;40046;53.254;5.900;2022-10-16T06:30:16;12.10;99.90
54140;DHT22;40046;53.254;5.900;2022-10-16T06:32:42;12.10;99.90
54140;DHT22;40046;53.254;5.900;2022-10-16T06:35:07;12.10;99.90
54140;DHT22;40046;53.254;5.900;2022-10-16T06:37:33;12.10;99.90
54140;DHT22;40046;53.254;5.900;2022-10-16T06:39:59;12.10;99.90
54140;DHT22;40046;53.254;5.900;2022-10-16T06:42:25;12.20;99.90
54140;DHT22;40046;53.254;5.900;2022-10-16T06:44:51;12.20;99.90
54140;DHT22;40046;53.254;5.900;2022-10-16T06:47:17;12.20;99.90
54140;DHT22;40046;53.254;5.900;2022-10-16T06:49:43;12.30;99.90
54140;DHT22;40046;53.254;5.900;2022-10-16T06:52:08;12.30;99.90
54140;DHT22;40046;53.254;5.900;2022-10-16T06:54:34;12.30;99.90
54140;DHT22;40046;53.254;5.900;2022-10-16T06:57:00;12.30;99.90
54140;DHT22;40046;53.254;5.900;2022-10-16T06:59:27;12.20;99.90
54140;DHT22;40046;53.254;5.900;2022-10-16T07:01:53;12.30;99.90
54140;DHT22;40046;53.254;5.900;2022-10-16T07:04:19;12.30;99.90
54140;DHT22;40046;53.254;5.900;2022-10-16T07:06:44;12.20;99.90
54140;DHT22;40046;53.254;5.900;2022-10-16T07:09:10;12.30;99.90
54140;DHT22;40046;53.254;5.900;2022-10-16T07:11:38;12.30;99.90
54140;DHT22;40046;53.254;5.900;2022-10-16T07:14:04;12.40;99.90
54140;DHT22;40046;53.254;5.900;2022-10-16T07:16:32;12.40;99.90
54140;DHT22;40046;53.254;5.900;2022-10-16T07:19:00;12.40;99.90
54140;DHT22;40046;53.254;5.900;2022-10-16T07:21:28;12.40;99.90
54140;DHT22;40046;53.254;5.900;2022-10-16T07:23:57;12.40;99.90
54140;DHT22;40046;53.254;5.900;2022-10-16T07:26:23;12.40;99.90
54140;DHT22;40046;53.254;5.900;2022-10-16T07:28:49;12.30;99.90
54140;DHT22;40046;53.254;5.900;2022-10-16T07:31:17;12.40;99.90
54140;DHT22;40046;53.254;5.900;2022-10-16T07:33:44;12.40;99.90
54140;DHT22;40046;53.254;5.900;2022-10-16T07:36:11;12.40;99.90
54140;DHT22;40046;53.254;5.900;2022-10-16T07:38:38;12.50;99.90
54140;DHT22;40046;53.254;5.900;2022-10-16T07:41:06;12.50;99.90
54140;DHT22;40046;53.254;5.900;2022-10-16T07:43:32;12.50;99.90
54140;DHT22;40046;53.254;5.900;2022-10-16T07:45:58;12.50;99.90
54140;DHT22;40046;53.254;5.900;2022-10-16T07:48:27;12.60;99.90
54140;DHT22;40046;53.254;5.900;2022-10-16T07:50:57;12.60;99.90
54140;DHT22;40046;53.254;5.900;2022-10-16T07:53:24;12.60;99.90
54140;DHT22;40046;53.254;5.900;2022-10-16T07:55:49;12.70;99.90
54140;DHT22;40046;53.254;5.900;2022-10-16T07:58:15;12.70;99.90
54140;DHT22;40046;53.254;5.900;2022-10-16T08:00:41;12.80;99.90
54140;DHT22;40046;53.254;5.900;2022-10-16T08:03:08;12.80;99.90
54140;DHT22;40046;53.254;5.900;2022-10-16T08:05:33;12.90;99.90
54140;DHT22;40046;53.254;5.900;2022-10-16T08:08:01;12.90;99.90
54140;DHT22;40046;53.254;5.900;2022-10-16T08:10:28;12.90;99.90
54140;DHT22;40046;53.254;5.900;2022-10-16T08:12:54;12.90;99.90
54140;DHT22;40046;53.254;5.900;2022-10-16T08:15:20;12.90;99.90
54140;DHT22;40046;53.254;5.900;2022-10-16T08:18:00;12.90;99.90
54140;DHT22;40046;53.254;5.900;2022-10-16T08:20:27;12.90;99.90
54140;DHT22;40046;53.254;5.900;2022-10-16T08:22:53;13.00;99.90
54140;DHT22;40046;53.254;5.900;2022-10-16T08:25:20;13.00;99.90
54140;DHT22;40046;53.254;5.900;2022-10-16T08:27:47;13.00;99.90
54140;DHT22;40046;53.254;5.900;2022-10-16T08:30:13;13.10;99.90
54140;DHT22;40046;53.254;5.900;2022-10-16T08:32:39;13.20;99.90
54140;DHT22;40046;53.254;5.900;2022-10-16T08:35:06;13.20;99.90
54140;DHT22;40046;53.254;5.900;2022-10-16T08:37:32;13.20;99.90
54140;DHT22;40046;53.254;5.900;2022-10-16T08:39:58;13.20;99.90
54140;DHT22;40046;53.254;5.900;2022-10-16T08:50:31;13.00;99.90
54140;DHT22;40046;53.254;5.900;2022-10-16T08:52:59;13.00;99.90
54140;DHT22;40046;53.254;5.900;2022-10-16T08:57:50;13.10;99.90
54140;DHT22;40046;53.254;5.900;2022-10-16T09:00:16;13.20;99.90
54140;DHT22;40046;53.254;5.900;2022-10-16T09:02:53;13.30;99.90
54140;DHT22;40046;53.254;5.900;2022-10-16T09:10:59;13.70;99.90
54140;DHT22;40046;53.254;5.900;2022-10-16T09:13:36;13.90;99.90
54140;DHT22;40046;53.254;5.900;2022-10-16T09:19:03;14.00;99.90
54140;DHT22;40046;53.254;5.900;2022-10-16T09:21:42;14.10;99.90
54140;DHT22;40046;53.254;5.900;2022-10-16T09:24:21;14.20;99.90
54140;DHT22;40046;53.254;5.900;2022-10-16T09:26:47;14.40;99.90
54140;DHT22;40046;53.254;5.900;2022-10-16T09:29:15;14.40;99.90
54140;DHT22;40046;53.254;5.900;2022-10-16T09:31:42;14.40;99.90
54140;DHT22;40046;53.254;5.900;2022-10-16T09:34:32;14.50;99.90
54140;DHT22;40046;53.254;5.900;2022-10-16T09:37:05;14.50;99.90
54140;DHT22;40046;53.254;5.900;2022-10-16T09:39:48;14.50;99.90
54140;DHT22;40046;53.254;5.900;2022-10-16T09:42:20;14.50;99.90
54140;DHT22;40046;53.254;5.900;2022-10-16T09:44:49;14.50;99.90
54140;DHT22;40046;53.254;5.900;2022-10-16T09:47:21;14.60;99.90
54140;DHT22;40046;53.254;5.900;2022-10-16T09:49:59;14.70;99.90
54140;DHT22;40046;53.254;5.900;2022-10-16T09:52:28;14.80;99.90
54140;DHT22;40046;53.254;5.900;2022-10-16T09:54:56;14.90;99.90
54140;DHT22;40046;53.254;5.900;2022-10-16T09:57:23;14.90;99.90
54140;DHT22;40046;53.254;5.900;2022-10-16T09:59:54;15.00;99.90
54140;DHT22;40046;53.254;5.900;2022-10-16T10:02:30;15.10;99.90
54140;DHT22;40046;53.254;5.900;2022-10-16T10:04:56;15.10;99.90
54140;DHT22;40046;53.254;5.900;2022-10-16T10:07:42;15.20;99.90
54140;DHT22;40046;53.254;5.900;2022-10-16T10:10:26;15.30;99.90
54140;DHT22;40046;53.254;5.900;2022-10-16T10:12:53;15.30;99.90
54140;DHT22;40046;53.254;5.900;2022-10-16T10:15:20;15.30;99.90
54140;DHT22;40046;53.254;5.900;2022-10-16T10:17:52;15.10;99.90
54140;DHT22;40046;53.254;5.900;2022-10-16T10:22:50;14.90;99.90
54140;DHT22;40046;53.254;5.900;2022-10-16T10:33:54;14.90;99.90
54140;DHT22;40046;53.254;5.900;2022-10-16T10:36:34;14.90;99.90
54140;DHT22;40046;53.254;5.900;2022-10-16T10:39:37;14.80;99.90
54140;DHT22;40046;53.254;5.900;2022-10-16T10:42:12;14.80;99.90
54140;DHT22;40046;53.254;5.900;2022-10-16T10:44:47;14.80;99.90
54140;DHT22;40046;53.254;5.900;2022-10-16T10:55:45;14.80;99.90
54140;DHT22;40046;53.254;5.900;2022-10-16T10:58:37;14.90;99.90
54140;DHT22;40046;53.254;5.900;2022-10-16T11:01:14;14.90;99.90
54140;DHT22;40046;53.254;5.900;2022-10-16T11:06:39;14.90;99.90
54140;DHT22;40046;53.254;5.900;2022-10-16T11:09:19;15.00;99.90
54140;DHT22;40046;53.254;5.900;2022-10-16T11:12:34;15.10;99.90
54140;DHT22;40046;53.254;5.900;2022-10-16T11:14:42;15.10;99.90
54140;DHT22;40046;53.254;5.900;2022-10-16T11:17:44;15.10;99.90
54140;DHT22;40046;53.254;5.900;2022-10-16T11:20:21;15.10;99.90
54140;DHT22;40046;53.254;5.900;2022-10-16T11:22:54;15.10;99.90
54140;DHT22;40046;53.254;5.900;2022-10-16T11:25:29;15.10;99.90
54140;DHT22;40046;53.254;5.900;2022-10-16T11:28:00;15.10;99.90
54140;DHT22;40046;53.254;5.900;2022-10-16T11:30:29;15.10;99.90
54140;DHT22;40046;53.254;5.900;2022-10-16T11:35:38;15.00;99.90
54140;DHT22;40046;53.254;5.900;2022-10-16T11:38:19;14.90;99.90
54140;DHT22;40046;53.254;5.900;2022-10-16T11:40:50;14.90;99.90
54140;DHT22;40046;53.254;5.900;2022-10-16T11:43:22;14.80;99.90
54140;DHT22;40046;53.254;5.900;2022-10-16T11:45:52;14.80;99.90
54140;DHT22;40046;53.254;5.900;2022-10-16T11:51:16;14.80;99.90
54140;DHT22;40046;53.254;5.900;2022-10-16T11:53:52;14.90;99.90
54140;DHT22;40046;53.254;5.900;2022-10-16T11:56:20;14.90;99.90
54140;DHT22;40046;53.254;5.900;2022-10-16T12:01:43;15.00;99.90
54140;DHT22;40046;53.254;5.900;2022-10-16T12:04:40;15.10;99.90
54140;DHT22;40046;53.254;5.900;2022-10-16T12:07:24;15.10;99.90
54140;DHT22;40046;53.254;5.900;2022-10-16T12:09:53;15.20;99.90
54140;DHT22;40046;53.254;5.900;2022-10-16T12:17:44;15.20;99.90
54140;DHT22;40046;53.254;5.900;2022-10-16T12:22:50;15.20;99.90
54140;DHT22;40046;53.254;5.900;2022-10-16T12:30:43;15.20;99.90
54140;DHT22;40046;53.254;5.900;2022-10-16T12:33:24;15.20;99.90
54140;DHT22;40046;53.254;5.900;2022-10-16T12:35:51;15.20;99.90
54140;DHT22;40046;53.254;5.900;2022-10-16T12:38:37;15.20;99.90
54140;DHT22;40046;53.254;5.900;2022-10-16T12:41:07;15.20;99.90
54140;DHT22;40046;53.254;5.900;2022-10-16T12:46:33;15.20;99.90
54140;DHT22;40046;53.254;5.900;2022-10-16T12:51:38;15.20;99.90
54140;DHT22;40046;53.254;5.900;2022-10-16T12:59:53;15.10;99.90
54140;DHT22;40046;53.254;5.900;2022-10-16T13:10:51;15.10;99.90
54140;DHT22;40046;53.254;5.900;2022-10-16T13:13:32;15.00;99.90
54140;DHT22;40046;53.254;5.900;2022-10-16T13:19:08;15.00;99.90
54140;DHT22;40046;53.254;5.900;2022-10-16T13:29:58;14.90;99.90
54140;DHT22;40046;53.254;5.900;2022-10-16T13:32:26;14.80;99.90
54140;DHT22;40046;53.254;5.900;2022-10-16T13:34:52;14.80;99.90
54140;DHT22;40046;53.254;5.900;2022-10-16T13:37:22;14.80;99.90
54140;DHT22;40046;53.254;5.900;2022-10-16T13:39:48;14.70;99.90
54140;DHT22;40046;53.254;5.900;2022-10-16T13:42:27;14.70;99.90
54140;DHT22;40046;53.254;5.900;2022-10-16T13:44:55;14.60;99.90
54140;DHT22;40046;53.254;5.900;2022-10-16T13:47:30;14.60;99.90
54140;DHT22;40046;53.254;5.900;2022-10-16T13:50:00;14.60;99.90
54140;DHT22;40046;53.254;5.900;2022-10-16T13:52:27;14.50;99.90
54140;DHT22;40046;53.254;5.900;2022-10-16T13:54:53;14.50;99.90
54140;DHT22;40046;53.254;5.900;2022-10-16T13:57:23;14.50;99.90
54140;DHT22;40046;53.254;5.900;2022-10-16T13:59:49;14.50;99.90
54140;DHT22;40046;53.254;5.900;2022-10-16T14:02:31;14.50;99.90
54140;DHT22;40046;53.254;5.900;2022-10-16T14:05:02;14.50;99.90
54140;DHT22;40046;53.254;5.900;2022-10-16T14:07:33;14.50;99.90
54140;DHT22;40046;53.254;5.900;2022-10-16T14:10:04;14.50;99.90
54140;DHT22;40046;53.254;5.900;2022-10-16T14:12:30;14.50;99.90
54140;DHT22;40046;53.254;5.900;2022-10-16T14:14:57;14.50;99.90
54140;DHT22;40046;53.254;5.900;2022-10-16T14:17:35;14.50;99.90
54140;DHT22;40046;53.254;5.900;2022-10-16T14:20:04;14.50;99.90
54140;DHT22;40046;53.254;5.900;2022-10-16T14:25:00;14.50;99.90
54140;DHT22;40046;53.254;5.900;2022-10-16T14:27:36;14.50;99.90
54140;DHT22;40046;53.254;5.900;2022-10-16T14:30:12;14.40;99.90
54140;DHT22;40046;53.254;5.900;2022-10-16T14:32:41;14.40;99.90
54140;DHT22;40046;53.254;5.900;2022-10-16T14:35:30;14.30;99.90
54140;DHT22;40046;53.254;5.900;2022-10-16T14:37:58;14.30;99.90
54140;DHT22;40046;53.254;5.900;2022-10-16T14:40:29;14.30;99.90
54140;DHT22;40046;53.254;5.900;2022-10-16T14:42:56;14.20;99.90
54140;DHT22;40046;53.254;5.900;2022-10-16T14:45:28;14.20;99.90
54140;DHT22;40046;53.254;5.900;2022-10-16T14:47:58;14.20;99.90
54140;DHT22;40046;53.254;5.900;2022-10-16T14:50:24;14.20;99.90
54140;DHT22;40046;53.254;5.900;2022-10-16T14:52:49;14.10;99.90
54140;DHT22;40046;53.254;5.900;2022-10-16T14:55:16;14.10;99.90
54140;DHT22;40046;53.254;5.900;2022-10-16T14:57:43;14.10;99.90
54140;DHT22;40046;53.254;5.900;2022-10-16T15:00:17;14.00;99.90
54140;DHT22;40046;53.254;5.900;2022-10-16T15:02:43;14.00;99.90
54140;DHT22;40046;53.254;5.900;2022-10-16T15:05:26;14.00;99.90
54140;DHT22;40046;53.254;5.900;2022-10-16T15:07:53;14.00;99.90
54140;DHT22;40046;53.254;5.900;2022-10-16T15:10:21;14.00;99.90
54140;DHT22;40046;53.254;5.900;2022-10-16T15:12:48;13.90;99.90
54140;DHT22;40046;53.254;5.900;2022-10-16T15:17:52;13.90;99.90
54140;DHT22;40046;53.254;5.900;2022-10-16T15:20:19;13.90;99.90
54140;DHT22;40046;53.254;5.900;2022-10-16T15:22:45;13.90;99.90
54140;DHT22;40046;53.254;5.900;2022-10-16T15:25:44;13.90;99.90
54140;DHT22;40046;53.254;5.900;2022-10-16T15:28:11;13.90;99.90
54140;DHT22;40046;53.254;5.900;2022-10-16T15:30:38;13.90;99.90
54140;DHT22;40046;53.254;5.900;2022-10-16T15:33:04;13.90;99.90
54140;DHT22;40046;53.254;5.900;2022-10-16T15:35:31;13.90;99.90
54140;DHT22;40046;53.254;5.900;2022-10-16T15:37:57;13.90;99.90
54140;DHT22;40046;53.254;5.900;2022-10-16T15:40:23;13.80;99.90
54140;DHT22;40046;53.254;5.900;2022-10-16T15:42:49;13.80;99.90
54140;DHT22;40046;53.254;5.900;2022-10-16T15:45:15;13.80;99.90
54140;DHT22;40046;53.254;5.900;2022-10-16T15:47:41;13.70;99.90
54140;DHT22;40046;53.254;5.900;2022-10-16T15:50:10;13.70;99.90
54140;DHT22;40046;53.254;5.900;2022-10-16T15:52:37;13.70;99.90
54140;DHT22;40046;53.254;5.900;2022-10-16T15:55:06;13.70;99.90
54140;DHT22;40046;53.254;5.900;2022-10-16T15:57:32;13.60;99.90
54140;DHT22;40046;53.254;5.900;2022-10-16T15:59:58;13.60;99.90
54140;DHT22;40046;53.254;5.900;2022-10-16T16:02:23;13.50;99.90
54140;DHT22;40046;53.254;5.900;2022-10-16T16:04:49;13.50;99.90
54140;DHT22;40046;53.254;5.900;2022-10-16T16:07:15;13.50;99.90
54140;DHT22;40046;53.254;5.900;2022-10-16T16:09:41;13.40;99.90
54140;DHT22;40046;53.254;5.900;2022-10-16T16:12:07;13.40;99.90
54140;DHT22;40046;53.254;5.900;2022-10-16T16:14:32;13.30;99.90
54140;DHT22;40046;53.254;5.900;2022-10-16T16:16:58;13.30;99.90
54140;DHT22;40046;53.254;5.900;2022-10-16T16:19:24;13.20;99.90
54140;DHT22;40046;53.254;5.900;2022-10-16T16:21:50;13.20;99.90
54140;DHT22;40046;53.254;5.900;2022-10-16T16:24:16;13.10;99.90
54140;DHT22;40046;53.254;5.900;2022-10-16T16:26:42;13.00;99.90
54140;DHT22;40046;53.254;5.900;2022-10-16T16:29:13;13.00;99.90
54140;DHT22;40046;53.254;5.900;2022-10-16T16:31:40;13.00;99.90
54140;DHT22;40046;53.254;5.900;2022-10-16T16:34:06;12.90;99.90
54140;DHT22;40046;53.254;5.900;2022-10-16T16:36:34;12.90;99.90
54140;DHT22;40046;53.254;5.900;2022-10-16T16:39:01;12.80;99.90
54140;DHT22;40046;53.254;5.900;2022-10-16T16:41:29;12.80;99.90
54140;DHT22;40046;53.254;5.900;2022-10-16T16:44:00;12.80;99.90
54140;DHT22;40046;53.254;5.900;2022-10-16T16:46:26;12.70;99.90
54140;DHT22;40046;53.254;5.900;2022-10-16T16:48:52;12.70;99.90
54140;DHT22;40046;53.254;5.900;2022-10-16T16:51:21;12.60;99.90
54140;DHT22;40046;53.254;5.900;2022-10-16T16:53:49;12.60;99.90
54140;DHT22;40046;53.254;5.900;2022-10-16T16:56:16;12.50;99.90
54140;DHT22;40046;53.254;5.900;2022-10-16T16:58:46;12.50;99.90
54140;DHT22;40046;53.254;5.900;2022-10-16T17:01:12;12.50;99.90
54140;DHT22;40046;53.254;5.900;2022-10-16T17:03:38;12.40;99.90
54140;DHT22;40046;53.254;5.900;2022-10-16T17:06:06;12.40;99.90
54140;DHT22;40046;53.254;5.900;2022-10-16T17:08:34;12.30;99.90
54140;DHT22;40046;53.254;5.900;2022-10-16T17:11:01;12.30;99.90
54140;DHT22;40046;53.254;5.900;2022-10-16T17:13:32;12.30;99.90
54140;DHT22;40046;53.254;5.900;2022-10-16T17:16:04;12.20;99.90
54140;DHT22;40046;53.254;5.900;2022-10-16T17:18:30;12.20;99.90
54140;DHT22;40046;53.254;5.900;2022-10-16T17:21:01;12.20;99.90
54140;DHT22;40046;53.254;5.900;2022-10-16T17:23:27;12.20;99.90
54140;DHT22;40046;53.254;5.900;2022-10-16T17:25:53;12.10;99.90
54140;DHT22;40046;53.254;5.900;2022-10-16T17:28:19;12.10;99.90
54140;DHT22;40046;53.254;5.900;2022-10-16T17:30:45;12.10;99.90
54140;DHT22;40046;53.254;5.900;2022-10-16T17:33:11;12.10;99.90
54140;DHT22;40046;53.254;5.900;2022-10-16T17:35:43;12.10;99.90
54140;DHT22;40046;53.254;5.900;2022-10-16T17:38:09;12.10;99.90
54140;DHT22;40046;53.254;5.900;2022-10-16T17:40:35;12.00;99.90
54140;DHT22;40046;53.254;5.900;2022-10-16T17:43:01;12.00;99.90